sensor_id;sensor_type;location;lat;lon;timestamp;temperature;humidity
17381;DHT22;8808;52.478;13.378;2022-10-26T00:02:11;10.00;99.90
17381;DHT22;8808;52.478;13.378;2022-10-26T00:04:38;10.00;99.90
17381;DHT22;8808;52.478;13.378;2022-10-26T00:07:05;10.10;99.90
17381;DHT22;8808;52.478;13.378;2022-10-26T00:09:31;10.10;99.90
17381;DHT22;8808;52.478;13.378;2022-10-26T00:11:58;10.10;99.90
17381;DHT22;8808;52.478;13.378;2022-10-26T00:14:27;10.10;99.90
17381;DHT22;8808;52.478;13.378;2022-10-26T00:16:55;10.10;99.90
17381;DHT22;8808;52.478;13.378;2022-10-26T00:19:22;10.00;99.90
17381;DHT22;8808;52.478;13.378;2022-10-26T00:21:48;10.10;99.90
17381;DHT22;8808;52.478;13.378;2022-10-26T00:24:15;10.00;99.90
17381;DHT22;8808;52.478;13.378;2022-10-26T00:26:42;10.00;99.90
17381;DHT22;8808;52.478;13.378;2022-10-26T00:29:10;9.90;99.90
17381;DHT22;8808;52.478;13.378;2022-10-26T00:31:39;9.90;99.90
17381;DHT22;8808;52.478;13.378;2022-10-26T00:34:06;9.80;99.90
17381;DHT22;8808;52.478;13.378;2022-10-26T00:36:32;9.80;99.90
17381;DHT22;8808;52.478;13.378;2022-10-26T00:38:59;9.90;99.90
17381;DHT22;8808;52.478;13.378;2022-10-26T00:41:28;9.80;99.90
17381;DHT22;8808;52.478;13.378;2022-10-26T00:43:56;9.80;99.90
17381;DHT22;8808;52.478;13.378;2022-10-26T00:46:25;9.70;99.90
17381;DHT22;8808;52.478;13.378;2022-10-26T00:48:56;9.70;99.90
17381;DHT22;8808;52.478;13.378;2022-10-26T00:51:27;9.60;99.90
17381;DHT22;8808;52.478;13.378;2022-10-26T00:53:58;9.60;99.90
17381;DHT22;8808;52.478;13.378;2022-10-26T00:56:26;9.60;99.90
17381;DHT22;8808;52.478;13.378;2022-10-26T00:58:55;9.50;99.90
17381;DHT22;8808;52.478;13.378;2022-10-26T01:04:01;9.50;99.90
17381;DHT22;8808;52.478;13.378;2022-10-26T01:06:28;9.50;99.90
17381;DHT22;8808;52.478;13.378;2022-10-26T01:08:55;9.50;99.90
17381;DHT22;8808;52.478;13.378;2022-10-26T01:11:22;9.50;99.90
17381;DHT22;8808;52.478;13.378;2022-10-26T01:13:50;9.40;99.90
17381;DHT22;8808;52.478;13.378;2022-10-26T01:16:40;9.40;99.90
17381;DHT22;8808;52.478;13.378;2022-10-26T01:19:34;9.30;99.90
17381;DHT22;8808;52.478;13.378;2022-10-26T01:22:13;9.40;99.90
17381;DHT22;8808;52.478;13.378;2022-10-26T01:24:57;9.30;99.90
17381;DHT22;8808;52.478;13.378;2022-10-26T01:27:28;9.30;99.90
17381;DHT22;8808;52.478;13.378;2022-10-26T01:33:30;9.40;99.90
17381;DHT22;8808;52.478;13.378;2022-10-26T01:36:10;9.30;99.90
17381;DHT22;8808;52.478;13.378;2022-10-26T01:38:43;9.20;99.90
17381;DHT22;8808;52.478;13.378;2022-10-26T01:41:16;9.20;99.90
17381;DHT22;8808;52.478;13.378;2022-10-26T01:43:47;9.10;99.90
17381;DHT22;8808;52.478;13.378;2022-10-26T01:46:17;9.00;99.90
17381;DHT22;8808;52.478;13.378;2022-10-26T01:48:47;9.00;99.90
17381;DHT22;8808;52.478;13.378;2022-10-26T01:51:15;9.10;99.90
17381;DHT22;8808;52.478;13.378;2022-10-26T01:53:44;9.00;99.90
17381;DHT22;8808;52.478;13.378;2022-10-26T01:56:16;9.00;99.90
17381;DHT22;8808;52.478;13.378;2022-10-26T01:58:58;9.00;99.90
17381;DHT22;8808;52.478;13.378;2022-10-26T02:02:17;8.90;99.90
17381;DHT22;8808;52.478;13.378;2022-10-26T02:04:57;8.90;99.90
17381;DHT22;8808;52.478;13.378;2022-10-26T02:07:30;8.80;99.90
17381;DHT22;8808;52.478;13.378;2022-10-26T02:12:40;8.80;99.90
17381;DHT22;8808;52.478;13.378;2022-10-26T02:15:16;8.90;99.90
17381;DHT22;8808;52.478;13.378;2022-10-26T02:17:46;8.80;99.90
17381;DHT22;8808;52.478;13.378;2022-10-26T02:20:20;8.80;99.90
17381;DHT22;8808;52.478;13.378;2022-10-26T02:22:50;8.80;99.90
17381;DHT22;8808;52.478;13.378;2022-10-26T02:25:21;8.70;99.90
17381;DHT22;8808;52.478;13.378;2022-10-26T02:27:52;8.70;99.90
17381;DHT22;8808;52.478;13.378;2022-10-26T02:30:21;8.70;99.90
17381;DHT22;8808;52.478;13.378;2022-10-26T02:32:51;8.70;99.90
17381;DHT22;8808;52.478;13.378;2022-10-26T02:35:23;8.70;99.90
17381;DHT22;8808;52.478;13.378;2022-10-26T02:37:51;8.70;99.90
17381;DHT22;8808;52.478;13.378;2022-10-26T02:40:23;8.70;99.90
17381;DHT22;8808;52.478;13.378;2022-10-26T02:42:51;8.70;99.90
17381;DHT22;8808;52.478;13.378;2022-10-26T02:45:22;8.70;99.90
17381;DHT22;8808;52.478;13.378;2022-10-26T02:47:50;8.80;99.90
17381;DHT22;8808;52.478;13.378;2022-10-26T02:50:21;8.70;99.90
17381;DHT22;8808;52.478;13.378;2022-10-26T02:52:54;8.60;99.90
17381;DHT22;8808;52.478;13.378;2022-10-26T02:55:26;8.70;99.90
17381;DHT22;8808;52.478;13.378;2022-10-26T02:57:57;8.70;99.90
17381;DHT22;8808;52.478;13.378;2022-10-26T03:00:24;8.60;99.90
17381;DHT22;8808;52.478;13.378;2022-10-26T03:02:53;8.60;99.90
17381;DHT22;8808;52.478;13.378;2022-10-26T03:05:25;8.60;99.90
17381;DHT22;8808;52.478;13.378;2022-10-26T03:07:53;8.60;99.90
17381;DHT22;8808;52.478;13.378;2022-10-26T03:10:21;8.70;99.90
17381;DHT22;8808;52.478;13.378;2022-10-26T03:12:48;8.70;99.90
17381;DHT22;8808;52.478;13.378;2022-10-26T03:15:15;8.60;99.90
17381;DHT22;8808;52.478;13.378;2022-10-26T03:17:42;8.70;99.90
17381;DHT22;8808;52.478;13.378;2022-10-26T03:20:10;8.70;99.90
17381;DHT22;8808;52.478;13.378;2022-10-26T03:22:38;8.70;99.90
17381;DHT22;8808;52.478;13.378;2022-10-26T03:25:06;8.70;99.90
17381;DHT22;8808;52.478;13.378;2022-10-26T03:27:33;8.70;99.90
17381;DHT22;8808;52.478;13.378;2022-10-26T03:30:00;8.80;99.90
17381;DHT22;8808;52.478;13.378;2022-10-26T03:32:27;8.70;99.90
17381;DHT22;8808;52.478;13.378;2022-10-26T03:34:54;8.60;99.90
17381;DHT22;8808;52.478;13.378;2022-10-26T03:37:20;8.60;99.90
17381;DHT22;8808;52.478;13.378;2022-10-26T03:39:49;8.50;99.90
17381;DHT22;8808;52.478;13.378;2022-10-26T03:42:16;8.50;99.90
17381;DHT22;8808;52.478;13.378;2022-10-26T03:44:42;8.50;99.90
17381;DHT22;8808;52.478;13.378;2022-10-26T03:47:09;8.50;99.90
17381;DHT22;8808;52.478;13.378;2022-10-26T03:49:36;8.50;99.90
17381;DHT22;8808;52.478;13.378;2022-10-26T03:52:03;8.50;99.90
17381;DHT22;8808;52.478;13.378;2022-10-26T03:54:30;8.60;99.90
17381;DHT22;8808;52.478;13.378;2022-10-26T03:56:58;8.50;99.90
17381;DHT22;8808;52.478;13.378;2022-10-26T03:59:25;8.60;99.90
17381;DHT22;8808;52.478;13.378;2022-10-26T04:01:51;8.50;99.90
17381;DHT22;8808;52.478;13.378;2022-10-26T04:04:18;8.50;99.90
17381;DHT22;8808;52.478;13.378;2022-10-26T04:06:45;8.40;99.90
17381;DHT22;8808;52.478;13.378;2022-10-26T04:09:12;8.50;99.90
17381;DHT22;8808;52.478;13.378;2022-10-26T04:11:39;8.50;99.90
17381;DHT22;8808;52.478;13.378;2022-10-26T04:14:07;8.50;99.90
17381;DHT22;8808;52.478;13.378;2022-10-26T04:16:34;8.30;99.90
17381;DHT22;8808;52.478;13.378;2022-10-26T04:19:01;8.40;99.90
17381;DHT22;8808;52.478;13.378;2022-10-26T04:21:27;8.40;99.90
17381;DHT22;8808;52.478;13.378;2022-10-26T04:23:54;8.40;99.90
17381;DHT22;8808;52.478;13.378;2022-10-26T04:26:21;8.50;99.90
17381;DHT22;8808;52.478;13.378;2022-10-26T04:28:48;8.40;99.90
17381;DHT22;8808;52.478;13.378;2022-10-26T04:31:16;8.50;99.90
17381;DHT22;8808;52.478;13.378;2022-10-26T04:33:43;8.60;99.90
17381;DHT22;8808;52.478;13.378;2022-10-26T04:36:10;8.40;99.90
17381;DHT22;8808;52.478;13.378;2022-10-26T04:38:37;8.60;99.90
17381;DHT22;8808;52.478;13.378;2022-10-26T04:41:04;8.70;99.90
17381;DHT22;8808;52.478;13.378;2022-10-26T04:43:31;8.90;99.90
17381;DHT22;8808;52.478;13.378;2022-10-26T04:45:58;9.20;99.90
17381;DHT22;8808;52.478;13.378;2022-10-26T04:48:26;9.40;99.90
17381;DHT22;8808;52.478;13.378;2022-10-26T04:50:53;9.60;99.90
17381;DHT22;8808;52.478;13.378;2022-10-26T04:53:20;9.60;99.90
17381;DHT22;8808;52.478;13.378;2022-10-26T04:55:46;9.70;99.90
17381;DHT22;8808;52.478;13.378;2022-10-26T04:58:13;9.70;99.90
17381;DHT22;8808;52.478;13.378;2022-10-26T05:00:40;9.80;99.90
17381;DHT22;8808;52.478;13.378;2022-10-26T05:03:08;9.70;99.90
17381;DHT22;8808;52.478;13.378;2022-10-26T05:05:36;9.80;99.90
17381;DHT22;8808;52.478;13.378;2022-10-26T05:08:03;9.80;99.90
17381;DHT22;8808;52.478;13.378;2022-10-26T05:10:30;9.60;99.90
17381;DHT22;8808;52.478;13.378;2022-10-26T05:12:58;9.70;99.90
17381;DHT22;8808;52.478;13.378;2022-10-26T05:15:27;9.70;99.90
17381;DHT22;8808;52.478;13.378;2022-10-26T05:17:54;9.70;99.90
17381;DHT22;8808;52.478;13.378;2022-10-26T05:20:21;9.50;99.90
17381;DHT22;8808;52.478;13.378;2022-10-26T05:22:55;9.30;99.90
17381;DHT22;8808;52.478;13.378;2022-10-26T05:25:22;9.30;99.90
17381;DHT22;8808;52.478;13.378;2022-10-26T05:27:49;9.30;99.90
17381;DHT22;8808;52.478;13.378;2022-10-26T05:30:16;9.20;99.90
17381;DHT22;8808;52.478;13.378;2022-10-26T05:32:43;9.10;99.90
17381;DHT22;8808;52.478;13.378;2022-10-26T05:35:09;9.20;99.90
17381;DHT22;8808;52.478;13.378;2022-10-26T05:37:36;9.00;99.90
17381;DHT22;8808;52.478;13.378;2022-10-26T05:40:06;8.90;99.90
17381;DHT22;8808;52.478;13.378;2022-10-26T05:42:33;8.90;99.90
17381;DHT22;8808;52.478;13.378;2022-10-26T05:45:00;9.00;99.90
17381;DHT22;8808;52.478;13.378;2022-10-26T05:47:26;9.00;99.90
17381;DHT22;8808;52.478;13.378;2022-10-26T05:49:53;8.80;99.90
17381;DHT22;8808;52.478;13.378;2022-10-26T05:52:20;8.70;99.90
17381;DHT22;8808;52.478;13.378;2022-10-26T05:54:47;8.80;99.90
17381;DHT22;8808;52.478;13.378;2022-10-26T05:57:15;8.80;99.90
17381;DHT22;8808;52.478;13.378;2022-10-26T05:59:42;8.80;99.90
17381;DHT22;8808;52.478;13.378;2022-10-26T06:02:18;8.80;99.90
17381;DHT22;8808;52.478;13.378;2022-10-26T06:04:50;8.80;99.90
17381;DHT22;8808;52.478;13.378;2022-10-26T06:07:18;8.80;99.90
17381;DHT22;8808;52.478;13.378;2022-10-26T06:09:46;8.70;99.90
17381;DHT22;8808;52.478;13.378;2022-10-26T06:12:15;8.70;99.90
17381;DHT22;8808;52.478;13.378;2022-10-26T06:14:43;8.70;99.90
17381;DHT22;8808;52.478;13.378;2022-10-26T06:17:32;8.80;99.90
17381;DHT22;8808;52.478;13.378;2022-10-26T06:20:11;8.70;99.90
17381;DHT22;8808;52.478;13.378;2022-10-26T06:22:51;8.80;99.90
17381;DHT22;8808;52.478;13.378;2022-10-26T06:25:28;8.80;99.90
17381;DHT22;8808;52.478;13.378;2022-10-26T06:28:07;8.90;99.90
17381;DHT22;8808;52.478;13.378;2022-10-26T06:30:38;8.90;99.90
17381;DHT22;8808;52.478;13.378;2022-10-26T06:33:07;9.00;99.90
17381;DHT22;8808;52.478;13.378;2022-10-26T06:35:39;9.00;99.90
17381;DHT22;8808;52.478;13.378;2022-10-26T06:38:12;9.00;99.90
17381;DHT22;8808;52.478;13.378;2022-10-26T06:40:42;9.00;99.90
17381;DHT22;8808;52.478;13.378;2022-10-26T06:43:17;9.00;99.90
17381;DHT22;8808;52.478;13.378;2022-10-26T06:45:50;8.90;99.90
17381;DHT22;8808;52.478;13.378;2022-10-26T06:48:21;9.10;99.90
17381;DHT22;8808;52.478;13.378;2022-10-26T06:50:51;9.20;99.90
17381;DHT22;8808;52.478;13.378;2022-10-26T06:53:22;9.30;99.90
17381;DHT22;8808;52.478;13.378;2022-10-26T06:55:51;9.40;99.90
17381;DHT22;8808;52.478;13.378;2022-10-26T06:58:23;9.50;99.90
17381;DHT22;8808;52.478;13.378;2022-10-26T07:00:53;9.50;99.90
17381;DHT22;8808;52.478;13.378;2022-10-26T07:03:20;9.70;99.90
17381;DHT22;8808;52.478;13.378;2022-10-26T07:05:47;9.90;99.90
17381;DHT22;8808;52.478;13.378;2022-10-26T07:08:14;9.80;99.90
17381;DHT22;8808;52.478;13.378;2022-10-26T07:10:40;10.00;99.90
17381;DHT22;8808;52.478;13.378;2022-10-26T07:13:09;10.00;99.90
17381;DHT22;8808;52.478;13.378;2022-10-26T07:15:38;9.80;99.90
17381;DHT22;8808;52.478;13.378;2022-10-26T07:18:06;9.80;99.90
17381;DHT22;8808;52.478;13.378;2022-10-26T07:20:35;9.90;99.90
17381;DHT22;8808;52.478;13.378;2022-10-26T07:23:02;10.10;99.90
17381;DHT22;8808;52.478;13.378;2022-10-26T07:25:31;10.20;99.90
17381;DHT22;8808;52.478;13.378;2022-10-26T07:27:59;10.30;99.90
17381;DHT22;8808;52.478;13.378;2022-10-26T07:30:27;10.40;99.90
17381;DHT22;8808;52.478;13.378;2022-10-26T07:32:59;10.50;99.90
17381;DHT22;8808;52.478;13.378;2022-10-26T07:35:26;10.50;99.90
17381;DHT22;8808;52.478;13.378;2022-10-26T07:37:56;10.70;99.90
17381;DHT22;8808;52.478;13.378;2022-10-26T07:40:23;10.80;99.90
17381;DHT22;8808;52.478;13.378;2022-10-26T07:42:50;11.00;99.90
17381;DHT22;8808;52.478;13.378;2022-10-26T07:45:17;10.90;99.90
17381;DHT22;8808;52.478;13.378;2022-10-26T07:47:44;11.20;99.90
17381;DHT22;8808;52.478;13.378;2022-10-26T07:50:13;11.40;99.90
17381;DHT22;8808;52.478;13.378;2022-10-26T07:52:40;11.60;99.90
17381;DHT22;8808;52.478;13.378;2022-10-26T07:55:08;11.70;99.90
17381;DHT22;8808;52.478;13.378;2022-10-26T07:57:35;11.80;99.90
17381;DHT22;8808;52.478;13.378;2022-10-26T08:00:04;11.80;99.90
17381;DHT22;8808;52.478;13.378;2022-10-26T08:02:31;11.80;99.90
17381;DHT22;8808;52.478;13.378;2022-10-26T08:04:58;11.90;99.90
17381;DHT22;8808;52.478;13.378;2022-10-26T08:07:26;12.10;99.90
17381;DHT22;8808;52.478;13.378;2022-10-26T08:09:53;12.30;99.90
17381;DHT22;8808;52.478;13.378;2022-10-26T08:12:20;12.10;99.90
17381;DHT22;8808;52.478;13.378;2022-10-26T08:14:47;12.10;99.90
17381;DHT22;8808;52.478;13.378;2022-10-26T08:17:14;12.30;99.90
17381;DHT22;8808;52.478;13.378;2022-10-26T08:19:41;12.10;99.90
17381;DHT22;8808;52.478;13.378;2022-10-26T08:22:07;12.10;99.90
17381;DHT22;8808;52.478;13.378;2022-10-26T08:24:36;12.40;99.90
17381;DHT22;8808;52.478;13.378;2022-10-26T08:27:02;12.70;99.90
17381;DHT22;8808;52.478;13.378;2022-10-26T08:29:29;12.70;99.90
17381;DHT22;8808;52.478;13.378;2022-10-26T08:31:56;12.90;99.90
17381;DHT22;8808;52.478;13.378;2022-10-26T08:34:23;13.10;99.90
17381;DHT22;8808;52.478;13.378;2022-10-26T08:36:50;13.10;99.90
17381;DHT22;8808;52.478;13.378;2022-10-26T08:39:16;13.10;99.90
17381;DHT22;8808;52.478;13.378;2022-10-26T08:41:46;13.00;99.90
17381;DHT22;8808;52.478;13.378;2022-10-26T08:44:23;12.90;99.90
17381;DHT22;8808;52.478;13.378;2022-10-26T08:46:54;12.80;99.90
17381;DHT22;8808;52.478;13.378;2022-10-26T08:49:25;12.80;99.90
17381;DHT22;8808;52.478;13.378;2022-10-26T08:51:56;12.80;99.90
17381;DHT22;8808;52.478;13.378;2022-10-26T08:54:32;13.00;99.90
17381;DHT22;8808;52.478;13.378;2022-10-26T08:57:03;13.20;99.90
17381;DHT22;8808;52.478;13.378;2022-10-26T08:59:39;13.00;99.90
17381;DHT22;8808;52.478;13.378;2022-10-26T09:02:11;13.00;99.90
17381;DHT22;8808;52.478;13.378;2022-10-26T09:04:38;13.30;99.90
17381;DHT22;8808;52.478;13.378;2022-10-26T09:07:11;13.30;99.90
17381;DHT22;8808;52.478;13.378;2022-10-26T09:09:46;13.30;99.90
17381;DHT22;8808;52.478;13.378;2022-10-26T09:12:21;13.30;99.90
17381;DHT22;8808;52.478;13.378;2022-10-26T09:15:02;13.40;99.90
17381;DHT22;8808;52.478;13.378;2022-10-26T09:17:37;13.40;99.90
17381;DHT22;8808;52.478;13.378;2022-10-26T09:20:38;13.70;99.90
17381;DHT22;8808;52.478;13.378;2022-10-26T09:23:22;13.90;99.90
17381;DHT22;8808;52.478;13.378;2022-10-26T09:25:57;13.80;99.90
17381;DHT22;8808;52.478;13.378;2022-10-26T09:28:29;14.10;99.90
17381;DHT22;8808;52.478;13.378;2022-10-26T09:30:58;14.00;99.90
17381;DHT22;8808;52.478;13.378;2022-10-26T09:33:27;14.10;99.90
17381;DHT22;8808;52.478;13.378;2022-10-26T09:35:58;14.10;99.90
17381;DHT22;8808;52.478;13.378;2022-10-26T09:38:28;14.10;99.90
17381;DHT22;8808;52.478;13.378;2022-10-26T09:41:00;14.20;99.90
17381;DHT22;8808;52.478;13.378;2022-10-26T09:43:34;14.40;99.90
17381;DHT22;8808;52.478;13.378;2022-10-26T09:46:03;14.50;99.90
17381;DHT22;8808;52.478;13.378;2022-10-26T09:48:35;14.60;99.90
17381;DHT22;8808;52.478;13.378;2022-10-26T09:51:04;14.70;99.90
17381;DHT22;8808;52.478;13.378;2022-10-26T09:53:31;14.70;99.90
17381;DHT22;8808;52.478;13.378;2022-10-26T09:56:02;14.90;99.90
17381;DHT22;8808;52.478;13.378;2022-10-26T09:58:35;15.00;99.90
17381;DHT22;8808;52.478;13.378;2022-10-26T10:01:03;15.10;99.90
17381;DHT22;8808;52.478;13.378;2022-10-26T10:03:31;15.20;99.90
17381;DHT22;8808;52.478;13.378;2022-10-26T10:06:13;15.30;99.90
17381;DHT22;8808;52.478;13.378;2022-10-26T10:08:41;15.50;99.90
17381;DHT22;8808;52.478;13.378;2022-10-26T10:11:10;15.80;99.90
17381;DHT22;8808;52.478;13.378;2022-10-26T10:16:11;16.10;99.90
17381;DHT22;8808;52.478;13.378;2022-10-26T10:18:39;16.40;99.90
17381;DHT22;8808;52.478;13.378;2022-10-26T10:21:07;16.30;99.90
17381;DHT22;8808;52.478;13.378;2022-10-26T10:23:35;16.10;99.90
17381;DHT22;8808;52.478;13.378;2022-10-26T10:26:05;15.90;99.90
17381;DHT22;8808;52.478;13.378;2022-10-26T10:28:33;15.90;99.90
17381;DHT22;8808;52.478;13.378;2022-10-26T10:31:03;15.80;99.90
17381;DHT22;8808;52.478;13.378;2022-10-26T10:33:36;15.70;99.90
17381;DHT22;8808;52.478;13.378;2022-10-26T10:36:07;15.70;99.90
17381;DHT22;8808;52.478;13.378;2022-10-26T10:38:38;15.90;99.90
17381;DHT22;8808;52.478;13.378;2022-10-26T10:41:20;15.80;99.90
17381;DHT22;8808;52.478;13.378;2022-10-26T10:43:51;15.90;99.90
17381;DHT22;8808;52.478;13.378;2022-10-26T10:46:22;16.00;99.90
17381;DHT22;8808;52.478;13.378;2022-10-26T10:48:53;16.10;99.90
17381;DHT22;8808;52.478;13.378;2022-10-26T10:51:23;15.90;99.90
17381;DHT22;8808;52.478;13.378;2022-10-26T10:53:52;16.10;99.90
17381;DHT22;8808;52.478;13.378;2022-10-26T10:56:31;16.60;99.90
17381;DHT22;8808;52.478;13.378;2022-10-26T11:07:09;18.00;99.90
17381;DHT22;8808;52.478;13.378;2022-10-26T11:09:39;18.30;99.90
17381;DHT22;8808;52.478;13.378;2022-10-26T11:12:12;18.00;99.90
17381;DHT22;8808;52.478;13.378;2022-10-26T11:14:42;18.10;99.90
17381;DHT22;8808;52.478;13.378;2022-10-26T11:17:16;18.00;99.90
17381;DHT22;8808;52.478;13.378;2022-10-26T11:19:47;17.90;99.90
17381;DHT22;8808;52.478;13.378;2022-10-26T11:22:19;18.00;99.90
17381;DHT22;8808;52.478;13.378;2022-10-26T11:24:49;18.00;99.90
17381;DHT22;8808;52.478;13.378;2022-10-26T11:27:26;17.90;99.90
17381;DHT22;8808;52.478;13.378;2022-10-26T11:30:00;17.90;99.90
17381;DHT22;8808;52.478;13.378;2022-10-26T11:32:33;17.90;99.90
17381;DHT22;8808;52.478;13.378;2022-10-26T11:35:04;17.50;99.90
17381;DHT22;8808;52.478;13.378;2022-10-26T11:37:43;17.60;99.90
17381;DHT22;8808;52.478;13.378;2022-10-26T11:40:21;17.50;99.90
17381;DHT22;8808;52.478;13.378;2022-10-26T11:42:56;17.40;99.90
17381;DHT22;8808;52.478;13.378;2022-10-26T11:45:27;17.40;99.90
17381;DHT22;8808;52.478;13.378;2022-10-26T11:48:03;17.40;99.90
17381;DHT22;8808;52.478;13.378;2022-10-26T11:50:33;17.30;99.90
17381;DHT22;8808;52.478;13.378;2022-10-26T11:53:05;17.40;99.90
17381;DHT22;8808;52.478;13.378;2022-10-26T11:55:36;17.30;99.90
17381;DHT22;8808;52.478;13.378;2022-10-26T11:58:04;17.50;99.90
17381;DHT22;8808;52.478;13.378;2022-10-26T12:00:32;17.50;99.90
17381;DHT22;8808;52.478;13.378;2022-10-26T12:03:06;17.50;99.90
17381;DHT22;8808;52.478;13.378;2022-10-26T12:05:42;17.50;99.90
17381;DHT22;8808;52.478;13.378;2022-10-26T12:08:14;17.60;99.90
17381;DHT22;8808;52.478;13.378;2022-10-26T12:10:42;17.80;99.90
17381;DHT22;8808;52.478;13.378;2022-10-26T12:13:18;17.80;99.90
17381;DHT22;8808;52.478;13.378;2022-10-26T12:15:53;18.10;99.90
17381;DHT22;8808;52.478;13.378;2022-10-26T12:18:29;18.10;99.90
17381;DHT22;8808;52.478;13.378;2022-10-26T12:21:00;18.00;99.90
17381;DHT22;8808;52.478;13.378;2022-10-26T12:23:32;18.10;99.90
17381;DHT22;8808;52.478;13.378;2022-10-26T12:29:30;17.90;99.90
17381;DHT22;8808;52.478;13.378;2022-10-26T12:31:57;18.00;99.90
17381;DHT22;8808;52.478;13.378;2022-10-26T12:34:56;17.90;99.90
17381;DHT22;8808;52.478;13.378;2022-10-26T12:37:31;18.00;99.90
17381;DHT22;8808;52.478;13.378;2022-10-26T12:43:32;18.30;99.90
17381;DHT22;8808;52.478;13.378;2022-10-26T12:52:42;18.20;99.90
17381;DHT22;8808;52.478;13.378;2022-10-26T12:55:41;18.10;99.90
17381;DHT22;8808;52.478;13.378;2022-10-26T12:58:45;18.10;99.90
17381;DHT22;8808;52.478;13.378;2022-10-26T13:01:29;18.10;99.90
17381;DHT22;8808;52.478;13.378;2022-10-26T13:04:24;18.10;99.90
17381;DHT22;8808;52.478;13.378;2022-10-26T13:07:15;18.00;99.90
17381;DHT22;8808;52.478;13.378;2022-10-26T13:09:51;18.00;99.90
17381;DHT22;8808;52.478;13.378;2022-10-26T13:12:19;18.00;99.90
17381;DHT22;8808;52.478;13.378;2022-10-26T13:14:59;18.00;99.90
17381;DHT22;8808;52.478;13.378;2022-10-26T13:17:28;18.00;99.90
17381;DHT22;8808;52.478;13.378;2022-10-26T13:19:58;18.00;99.90
17381;DHT22;8808;52.478;13.378;2022-10-26T13:22:26;18.00;99.90
17381;DHT22;8808;52.478;13.378;2022-10-26T13:24:57;18.00;99.90
17381;DHT22;8808;52.478;13.378;2022-10-26T13:27:42;18.00;99.90
17381;DHT22;8808;52.478;13.378;2022-10-26T13:30:20;18.00;99.90
17381;DHT22;8808;52.478;13.378;2022-10-26T13:33:01;18.00;99.90
17381;DHT22;8808;52.478;13.378;2022-10-26T13:35:30;18.00;99.90
17381;DHT22;8808;52.478;13.378;2022-10-26T13:37:59;18.00;99.90
17381;DHT22;8808;52.478;13.378;2022-10-26T13:40:36;18.00;99.90
17381;DHT22;8808;52.478;13.378;2022-10-26T13:43:04;18.00;99.90
17381;DHT22;8808;52.478;13.378;2022-10-26T13:45:36;18.00;99.90
17381;DHT22;8808;52.478;13.378;2022-10-26T13:48:10;18.10;99.90
17381;DHT22;8808;52.478;13.378;2022-10-26T13:50:45;18.00;99.90
17381;DHT22;8808;52.478;13.378;2022-10-26T13:53:15;18.00;99.90
17381;DHT22;8808;52.478;13.378;2022-10-26T13:55:50;18.00;99.90
17381;DHT22;8808;52.478;13.378;2022-10-26T13:58:22;18.00;99.90
17381;DHT22;8808;52.478;13.378;2022-10-26T14:01:03;18.00;99.90
17381;DHT22;8808;52.478;13.378;2022-10-26T14:03:30;18.00;99.90
17381;DHT22;8808;52.478;13.378;2022-10-26T14:05:57;18.00;99.90
17381;DHT22;8808;52.478;13.378;2022-10-26T14:08:24;18.00;99.90
17381;DHT22;8808;52.478;13.378;2022-10-26T14:10:57;18.00;99.90
17381;DHT22;8808;52.478;13.378;2022-10-26T14:13:26;18.00;99.90
17381;DHT22;8808;52.478;13.378;2022-10-26T14:15:55;18.00;99.90
17381;DHT22;8808;52.478;13.378;2022-10-26T14:18:25;18.00;99.90
17381;DHT22;8808;52.478;13.378;2022-10-26T14:20:56;18.00;99.90
17381;DHT22;8808;52.478;13.378;2022-10-26T14:23:26;18.00;99.90
17381;DHT22;8808;52.478;13.378;2022-10-26T14:25:55;18.00;99.90
17381;DHT22;8808;52.478;13.378;2022-10-26T14:28:23;18.00;99.90
17381;DHT22;8808;52.478;13.378;2022-10-26T14:30:50;17.90;99.90
17381;DHT22;8808;52.478;13.378;2022-10-26T14:33:18;17.90;99.90
17381;DHT22;8808;52.478;13.378;2022-10-26T14:35:46;17.90;99.90
17381;DHT22;8808;52.478;13.378;2022-10-26T14:38:17;17.90;99.90
17381;DHT22;8808;52.478;13.378;2022-10-26T14:40:47;17.90;99.90
17381;DHT22;8808;52.478;13.378;2022-10-26T14:43:21;17.90;99.90
17381;DHT22;8808;52.478;13.378;2022-10-26T14:45:50;17.80;99.90
17381;DHT22;8808;52.478;13.378;2022-10-26T14:48:22;17.70;99.90
17381;DHT22;8808;52.478;13.378;2022-10-26T14:50:57;17.70;99.90
17381;DHT22;8808;52.478;13.378;2022-10-26T14:53:31;17.70;99.90
17381;DHT22;8808;52.478;13.378;2022-10-26T14:55:59;17.70;99.90
17381;DHT22;8808;52.478;13.378;2022-10-26T14:58:29;17.60;99.90
17381;DHT22;8808;52.478;13.378;2022-10-26T15:01:25;17.50;99.90
17381;DHT22;8808;52.478;13.378;2022-10-26T15:03:54;17.50;99.90
17381;DHT22;8808;52.478;13.378;2022-10-26T15:06:30;17.50;99.90
17381;DHT22;8808;52.478;13.378;2022-10-26T15:08:58;17.40;99.90
17381;DHT22;8808;52.478;13.378;2022-10-26T15:11:26;17.50;99.90
17381;DHT22;8808;52.478;13.378;2022-10-26T15:13:55;17.40;99.90
17381;DHT22;8808;52.478;13.378;2022-10-26T15:16:24;17.40;99.90
17381;DHT22;8808;52.478;13.378;2022-10-26T15:18:54;17.10;99.90
17381;DHT22;8808;52.478;13.378;2022-10-26T15:21:24;17.20;99.90
17381;DHT22;8808;52.478;13.378;2022-10-26T15:23:52;17.20;99.90
17381;DHT22;8808;52.478;13.378;2022-10-26T15:26:20;17.10;99.90
17381;DHT22;8808;52.478;13.378;2022-10-26T15:28:47;17.20;99.90
17381;DHT22;8808;52.478;13.378;2022-10-26T15:31:31;17.20;99.90
17381;DHT22;8808;52.478;13.378;2022-10-26T15:34:22;17.10;99.90
17381;DHT22;8808;52.478;13.378;2022-10-26T15:36:49;17.10;99.90
17381;DHT22;8808;52.478;13.378;2022-10-26T15:39:16;17.10;99.90
17381;DHT22;8808;52.478;13.378;2022-10-26T15:41:45;17.10;99.90
17381;DHT22;8808;52.478;13.378;2022-10-26T15:44:14;17.00;99.90
17381;DHT22;8808;52.478;13.378;2022-10-26T15:46:43;16.70;99.90
17381;DHT22;8808;52.478;13.378;2022-10-26T15:49:15;16.70;99.90
17381;DHT22;8808;52.478;13.378;2022-10-26T15:51:44;16.60;99.90
17381;DHT22;8808;52.478;13.378;2022-10-26T15:54:12;16.50;99.90
17381;DHT22;8808;52.478;13.378;2022-10-26T15:56:39;16.50;99.90
17381;DHT22;8808;52.478;13.378;2022-10-26T15:59:13;16.40;99.90
17381;DHT22;8808;52.478;13.378;2022-10-26T16:01:42;16.40;99.90
17381;DHT22;8808;52.478;13.378;2022-10-26T16:04:09;16.40;99.90
17381;DHT22;8808;52.478;13.378;2022-10-26T16:06:38;16.20;99.90
17381;DHT22;8808;52.478;13.378;2022-10-26T16:09:08;16.10;99.90
17381;DHT22;8808;52.478;13.378;2022-10-26T16:11:35;16.00;99.90
17381;DHT22;8808;52.478;13.378;2022-10-26T16:14:02;15.90;99.90
17381;DHT22;8808;52.478;13.378;2022-10-26T16:16:29;15.80;99.90
17381;DHT22;8808;52.478;13.378;2022-10-26T16:18:57;15.80;99.90
17381;DHT22;8808;52.478;13.378;2022-10-26T16:21:24;15.80;99.90
17381;DHT22;8808;52.478;13.378;2022-10-26T16:23:53;15.80;99.90
17381;DHT22;8808;52.478;13.378;2022-10-26T16:26:21;15.70;99.90
17381;DHT22;8808;52.478;13.378;2022-10-26T16:28:48;15.70;99.90
17381;DHT22;8808;52.478;13.378;2022-10-26T16:31:17;15.50;99.90
17381;DHT22;8808;52.478;13.378;2022-10-26T16:33:44;15.60;99.90